createdAt,value
2024-02-16T00:01:31.902Z,66.30
2024-02-16T00:06:36.372Z,66.50
2024-02-16T00:11:39.457Z,66.70
2024-02-16T00:16:42.365Z,66.60
2024-02-16T00:21:46.577Z,66.60
2024-02-16T00:26:49.623Z,66.80
2024-02-16T00:31:52.668Z,67.10
2024-02-16T00:36:56.912Z,67.20
2024-02-16T00:42:01.015Z,67.10
2024-02-16T00:47:03.957Z,67.00
2024-02-16T00:52:08.679Z,67.20
2024-02-16T00:57:11.718Z,67.50
2024-02-16T01:02:15.074Z,67.70
2024-02-16T01:07:19.604Z,67.70
2024-02-16T01:12:22.510Z,67.90
2024-02-16T01:17:25.435Z,67.90
2024-02-16T01:22:30.392Z,68.10
2024-02-16T01:27:33.745Z,68.20
2024-02-16T01:32:36.915Z,68.20
2024-02-16T01:37:41.640Z,68.30
2024-02-16T01:42:44.637Z,68.40
2024-02-16T01:47:49.666Z,68.80
2024-02-16T01:52:54.541Z,68.90
2024-02-16T01:58:00.090Z,68.70
2024-02-16T02:03:03.230Z,69.00
2024-02-16T02:08:13.746Z,68.80
2024-02-16T02:13:16.850Z,68.90
2024-02-16T02:18:20.363Z,68.80
2024-02-16T02:23:24.712Z,68.80
2024-02-16T02:28:27.581Z,69.10
2024-02-16T02:33:31.055Z,70.00
2024-02-16T02:38:36.053Z,69.50
2024-02-16T02:43:38.954Z,69.50
2024-02-16T02:48:41.960Z,69.20
2024-02-16T02:53:46.384Z,69.70
2024-02-16T02:58:49.490Z,70.00
2024-02-16T03:03:52.571Z,70.00
2024-02-16T03:08:57.768Z,70.60
2024-02-16T03:14:00.692Z,70.40
2024-02-16T03:19:03.796Z,70.50
2024-02-16T03:24:08.645Z,70.10
2024-02-16T03:29:11.679Z,69.90
2024-02-16T03:34:14.637Z,70.20
2024-02-16T03:39:21.299Z,69.90
2024-02-16T03:44:24.302Z,70.00
2024-02-16T03:49:29.148Z,70.00
2024-02-16T03:54:33.681Z,70.00
2024-02-16T03:59:36.684Z,70.10
2024-02-16T04:04:39.640Z,70.00
2024-02-16T04:09:43.918Z,70.10
2024-02-16T04:14:47.052Z,70.50
2024-02-16T04:19:50.204Z,70.80
2024-02-16T04:24:54.555Z,70.70
2024-02-16T04:29:58.018Z,70.80
2024-02-16T04:35:01.160Z,70.70
2024-02-16T04:40:06.966Z,70.90
2024-02-16T04:45:13.079Z,71.00
2024-02-16T04:50:16.316Z,71.50
2024-02-16T04:55:20.559Z,71.20
2024-02-16T05:00:23.635Z,71.20
2024-02-16T05:05:26.766Z,71.40
2024-02-16T05:10:30.980Z,70.90
2024-02-16T05:15:34.164Z,71.10
2024-02-16T05:20:37.168Z,70.80
2024-02-16T05:25:42.412Z,71.00
2024-02-16T05:30:45.450Z,70.70
2024-02-16T05:35:52.641Z,70.80
2024-02-16T05:40:57.983Z,70.40
2024-02-16T05:46:01.031Z,70.70
2024-02-16T05:51:04.094Z,70.40
2024-02-16T05:56:11.376Z,70.50
2024-02-16T06:01:15.693Z,70.80
2024-02-16T06:06:18.724Z,70.90
2024-02-16T06:11:23.026Z,70.80
2024-02-16T06:16:25.939Z,70.70
2024-02-16T06:21:29.034Z,70.70
2024-02-16T06:26:33.287Z,70.50
2024-02-16T06:31:36.155Z,70.60
2024-02-16T06:36:41.371Z,71.10
2024-02-16T06:41:47.678Z,71.50
2024-02-16T06:46:50.705Z,71.20
2024-02-16T06:51:53.829Z,70.60
2024-02-16T06:56:58.188Z,70.50
2024-02-16T07:02:01.092Z,70.40
2024-02-16T07:07:05.238Z,69.90
2024-02-16T07:12:10.581Z,70.10
2024-02-16T07:17:13.521Z,70.10
2024-02-16T07:22:16.759Z,69.70
2024-02-16T07:27:21.009Z,70.00
2024-02-16T07:32:23.932Z,70.10
2024-02-16T07:37:26.916Z,69.40
2024-02-16T07:42:31.251Z,69.20
2024-02-16T07:47:34.492Z,68.50
2024-02-16T07:52:37.857Z,69.20
2024-02-16T07:57:42.192Z,69.30
2024-02-16T08:02:45.327Z,69.10
2024-02-16T08:07:49.343Z,69.20
2024-02-16T08:12:53.658Z,69.00
2024-02-16T08:17:56.708Z,68.90
2024-02-16T08:23:00.534Z,67.80
2024-02-16T08:28:06.026Z,68.70
2024-02-16T08:33:09.215Z,67.30
2024-02-16T08:38:12.543Z,67.00
2024-02-16T08:43:16.975Z,67.50
2024-02-16T08:48:20.109Z,67.70
2024-02-16T08:53:23.192Z,67.20
2024-02-16T08:58:27.443Z,66.30
2024-02-16T09:03:30.502Z,65.70
2024-02-16T09:08:34.569Z,65.70
2024-02-16T09:13:41.881Z,64.90
2024-02-16T09:18:45.498Z,64.90
2024-02-16T09:23:48.440Z,63.90
2024-02-16T09:28:52.630Z,63.00
2024-02-16T09:33:55.696Z,62.40
2024-02-16T09:38:59.370Z,62.70
2024-02-16T09:44:04.211Z,62.40
2024-02-16T09:49:07.414Z,60.80
2024-02-16T09:54:11.687Z,58.70
2024-02-16T09:59:15.944Z,57.40
2024-02-16T10:04:18.819Z,57.40
2024-02-16T10:09:25.915Z,56.20
2024-02-16T10:14:33.127Z,55.60
2024-02-16T10:19:41.722Z,55.30
2024-02-16T10:24:46.018Z,53.50
2024-02-16T10:29:51.895Z,53.60
2024-02-16T10:34:57.443Z,52.30
2024-02-16T10:40:02.292Z,51.30
2024-02-16T10:45:08.452Z,51.30
2024-02-16T10:50:12.066Z,51.70
2024-02-16T10:55:16.936Z,50.60
2024-02-16T11:00:22.375Z,50.40
2024-02-16T11:05:35.896Z,50.30
2024-02-16T11:10:38.825Z,49.80
2024-02-16T11:15:43.457Z,50.00
2024-02-16T11:20:46.698Z,49.00
2024-02-16T11:25:52.989Z,48.30
2024-02-16T11:31:00.649Z,49.10
2024-02-16T11:36:09.498Z,47.70
2024-02-16T11:41:12.619Z,48.30
2024-02-16T11:46:18.677Z,47.90
2024-02-16T11:51:21.549Z,47.40
2024-02-16T11:56:25.696Z,48.10
2024-02-16T12:01:30.624Z,47.30
2024-02-16T12:06:33.733Z,47.70
2024-02-16T12:11:38.956Z,47.10
2024-02-16T12:16:43.258Z,47.50
2024-02-16T12:21:46.271Z,47.60
2024-02-16T12:26:49.188Z,48.00
2024-02-16T12:31:53.530Z,48.10
2024-02-16T12:36:56.424Z,48.60
2024-02-16T12:41:59.590Z,49.50
2024-02-16T12:47:04.021Z,47.90
2024-02-16T12:52:07.408Z,48.40
2024-02-16T12:57:15.529Z,47.70
2024-02-16T13:02:19.903Z,46.30
2024-02-16T13:07:22.987Z,46.00
2024-02-16T13:12:25.955Z,46.20
2024-02-16T13:17:30.250Z,45.60
2024-02-16T13:22:33.235Z,46.30
2024-02-16T13:27:36.371Z,46.00
2024-02-16T13:32:41.800Z,45.80
2024-02-16T13:37:44.782Z,45.80
2024-02-16T13:42:47.868Z,46.50
2024-02-16T13:47:52.080Z,47.10
2024-02-16T13:52:56.440Z,47.10
2024-02-16T13:57:59.373Z,47.80
2024-02-16T14:03:04.061Z,48.00
2024-02-16T14:08:09.442Z,48.80
2024-02-16T14:13:12.646Z,49.30
2024-02-16T14:18:26.467Z,49.20
2024-02-16T14:23:33.098Z,48.20
2024-02-16T14:28:35.994Z,48.10
2024-02-16T14:33:40.620Z,46.60
2024-02-16T14:38:43.851Z,46.30
2024-02-16T14:43:47.738Z,46.10
2024-02-16T14:48:53.124Z,46.30
2024-02-16T14:53:56.140Z,46.00
2024-02-16T14:58:59.086Z,45.00
2024-02-16T15:04:03.367Z,44.90
2024-02-16T15:09:06.630Z,44.50
2024-02-16T15:14:09.630Z,44.50
2024-02-16T15:19:13.971Z,44.50
2024-02-16T15:24:17.098Z,45.60
2024-02-16T15:29:20.016Z,46.30
2024-02-16T15:34:25.176Z,46.10
2024-02-16T15:39:28.155Z,46.80
2024-02-16T15:44:31.117Z,48.30
2024-02-16T15:49:35.352Z,49.30
2024-02-16T15:54:38.273Z,50.10
2024-02-16T15:59:41.253Z,50.70
2024-02-16T16:04:45.498Z,51.10
2024-02-16T16:09:48.415Z,51.50
2024-02-16T16:14:52.113Z,52.20
2024-02-16T16:19:58.377Z,52.10
2024-02-16T16:25:02.618Z,52.40
2024-02-16T16:30:06.556Z,52.30
2024-02-16T16:35:11.702Z,52.80
2024-02-16T16:40:15.169Z,53.30
2024-02-16T16:45:18.219Z,53.20
2024-02-16T16:50:22.859Z,53.90
2024-02-16T16:55:25.797Z,54.40
2024-02-16T17:00:29.156Z,54.40
2024-02-16T17:05:33.449Z,54.70
2024-02-16T17:10:36.553Z,55.10
2024-02-16T17:15:39.457Z,54.90
2024-02-16T17:20:43.659Z,55.00
2024-02-16T17:25:46.514Z,55.10
2024-02-16T17:30:49.464Z,55.80
2024-02-16T17:35:53.702Z,56.10
2024-02-16T17:40:56.585Z,56.40
2024-02-16T17:45:59.448Z,56.30
2024-02-16T17:51:03.718Z,56.40
2024-02-16T17:56:08.951Z,56.60
2024-02-16T18:01:12.949Z,57.70
2024-02-16T18:06:17.281Z,57.40
2024-02-16T18:11:21.518Z,57.70
2024-02-16T18:16:27.916Z,57.90
2024-02-16T18:21:32.307Z,58.00
2024-02-16T18:26:36.068Z,58.40
2024-02-16T18:31:38.985Z,58.50
2024-02-16T18:36:43.292Z,58.60
2024-02-16T18:41:46.359Z,58.60
2024-02-16T18:46:49.244Z,59.10
2024-02-16T18:51:53.760Z,59.10
2024-02-16T18:56:56.936Z,59.00
2024-02-16T19:02:02.623Z,59.30
2024-02-16T19:07:07.690Z,59.10
2024-02-16T19:12:11.709Z,59.20
2024-02-16T19:17:15.189Z,59.20
2024-02-16T19:22:19.471Z,59.40
2024-02-16T19:27:22.381Z,59.40
2024-02-16T19:32:25.317Z,59.70
2024-02-16T19:37:29.831Z,59.60
2024-02-16T19:42:32.756Z,59.80
2024-02-16T19:47:35.972Z,59.50
2024-02-16T19:52:40.314Z,60.00
2024-02-16T19:57:46.161Z,60.40
2024-02-16T20:02:52.990Z,60.50
2024-02-16T20:07:57.312Z,60.40
2024-02-16T20:13:00.251Z,60.40
2024-02-16T20:18:04.501Z,60.20
2024-02-16T20:23:08.834Z,60.20
2024-02-16T20:28:11.716Z,60.30
2024-02-16T20:33:16.505Z,60.10
2024-02-16T20:38:20.739Z,60.20
2024-02-16T20:43:23.612Z,60.40
2024-02-16T20:48:27.008Z,60.70
2024-02-16T20:53:31.345Z,60.60
2024-02-16T20:58:34.235Z,61.00
2024-02-16T21:03:38.002Z,60.90
2024-02-16T21:08:46.760Z,61.30
2024-02-16T21:13:50.153Z,61.20
2024-02-16T21:18:53.217Z,61.50
2024-02-16T21:23:57.522Z,61.50
2024-02-16T21:29:03.979Z,62.00
2024-02-16T21:34:07.550Z,61.70
2024-02-16T21:39:12.146Z,61.90
2024-02-16T21:44:15.198Z,61.90
2024-02-16T21:49:18.380Z,62.20
2024-02-16T21:54:22.730Z,62.30
2024-02-16T21:59:25.993Z,62.60
2024-02-16T22:04:28.867Z,62.70
2024-02-16T22:09:34.016Z,62.90
2024-02-16T22:14:36.969Z,62.90
2024-02-16T22:19:39.966Z,62.90
2024-02-16T22:24:44.270Z,63.20
2024-02-16T22:29:47.297Z,63.60
2024-02-16T22:34:50.287Z,63.30
2024-02-16T22:39:54.546Z,63.50
2024-02-16T22:44:57.696Z,63.20
2024-02-16T22:50:01.169Z,64.20
2024-02-16T22:55:06.166Z,65.60
2024-02-16T23:00:24.210Z,67.10
2024-02-16T23:05:27.605Z,68.10
2024-02-16T23:10:34.719Z,68.10
2024-02-16T23:15:37.600Z,68.60
2024-02-16T23:20:41.268Z,68.40
2024-02-16T23:25:46.591Z,68.70
2024-02-16T23:30:49.613Z,68.80
2024-02-16T23:35:52.586Z,69.10
2024-02-16T23:40:58.379Z,69.30
2024-02-16T23:46:05.030Z,70.00
2024-02-16T23:51:08.423Z,70.50
2024-02-16T23:56:13.049Z,70.40
